createdAt,value
2023-11-13T00:00:37.003Z,2135.64
2023-11-13T00:03:04.756Z,3814.20
2023-11-13T00:05:34.046Z,3677.65
2023-11-13T00:08:01.716Z,1903.00
2023-11-13T00:10:29.654Z,1428.77
2023-11-13T00:12:57.384Z,2462.05
2023-11-13T00:15:25.042Z,2015.28
2023-11-13T00:17:52.760Z,3142.93
2023-11-13T00:20:20.853Z,3363.10
2023-11-13T00:22:50.104Z,2994.29
2023-11-13T00:25:17.888Z,4962.66
2023-11-13T00:27:45.624Z,5196.13
2023-11-13T00:30:13.759Z,5014.75
2023-11-13T00:32:41.483Z,3317.85
2023-11-13T00:35:09.429Z,2258.13
2023-11-13T00:37:37.127Z,1670.03
2023-11-13T00:40:07.733Z,2804.56
2023-11-13T00:42:35.393Z,1690.03
2023-11-13T00:45:03.384Z,2641.46
2023-11-13T00:47:31.095Z,3570.49
2023-11-13T00:49:58.799Z,2610.27
2023-11-13T00:52:26.462Z,3572.68
2023-11-13T00:54:54.176Z,2255.55
2023-11-13T00:57:23.209Z,3342.44
2023-11-13T00:59:50.892Z,4525.81
2023-11-13T01:02:18.624Z,4515.77
2023-11-13T01:04:46.285Z,3955.94
2023-11-13T01:07:14.008Z,7317.10
2023-11-13T01:09:41.678Z,4773.53
2023-11-13T01:12:09.985Z,3874.92
2023-11-13T01:14:39.157Z,4348.52
2023-11-13T01:17:06.909Z,2859.78
2023-11-13T01:19:34.716Z,6816.41
2023-11-13T01:22:02.490Z,2112.12
2023-11-13T01:24:30.196Z,4184.13
2023-11-13T01:26:57.919Z,2555.57
2023-11-13T01:29:25.573Z,11119.81
2023-11-13T01:31:54.588Z,5775.69
2023-11-13T01:34:22.374Z,3395.22
2023-11-13T01:36:50.064Z,1542.31
2023-11-13T01:39:17.738Z,1364.16
2023-11-13T01:41:45.369Z,711.97
2023-11-13T01:44:12.992Z,538.74
2023-11-13T01:46:40.810Z,556.43
2023-11-13T01:49:11.572Z,579.89
2023-11-13T01:51:39.436Z,636.38
2023-11-13T01:54:07.352Z,693.29
2023-11-13T01:56:36.428Z,622.66
2023-11-13T01:59:04.709Z,460.99
2023-11-13T02:01:32.868Z,523.75
2023-11-13T02:04:00.636Z,618.09
2023-11-13T02:06:29.674Z,489.52
2023-11-13T02:08:57.303Z,1429.73
2023-11-13T02:11:26.483Z,1738.63
2023-11-13T02:13:54.726Z,3212.20
2023-11-13T02:16:22.460Z,3098.99
2023-11-13T02:18:50.152Z,2720.30
2023-11-13T02:21:17.800Z,1968.09
2023-11-13T02:23:47.839Z,3727.96
2023-11-13T02:26:16.052Z,3528.27
2023-11-13T02:28:44.698Z,4834.81
2023-11-13T02:31:12.582Z,5959.80
2023-11-13T02:33:40.421Z,6985.80
2023-11-13T02:36:08.740Z,6377.73
2023-11-13T02:38:36.560Z,7693.27
2023-11-13T02:41:05.650Z,5102.48
2023-11-13T02:43:33.323Z,4378.82
2023-11-13T02:46:01.064Z,4832.48
2023-11-13T02:48:28.897Z,6212.40
2023-11-13T02:50:56.577Z,6642.18
2023-11-13T02:53:24.238Z,3346.15
2023-11-13T02:55:51.975Z,4858.94
2023-11-13T02:58:21.025Z,1182.84
2023-11-13T03:00:48.830Z,4949.18
2023-11-13T03:03:16.706Z,5698.19
2023-11-13T03:05:44.423Z,4803.77
2023-11-13T03:08:12.230Z,6318.42
2023-11-13T03:10:40.010Z,4067.65
2023-11-13T03:13:07.761Z,6623.83
2023-11-13T03:15:36.851Z,8050.25
2023-11-13T03:18:04.968Z,8012.69
2023-11-13T03:20:32.688Z,4734.81
2023-11-13T03:23:00.353Z,6681.91
2023-11-13T03:25:28.096Z,8810.80
2023-11-13T03:27:55.844Z,9696.17
2023-11-13T03:30:24.140Z,8917.36
2023-11-13T03:32:53.348Z,9447.48
2023-11-13T03:35:21.146Z,6101.79
2023-11-13T03:37:48.789Z,7364.78
2023-11-13T03:40:16.564Z,8805.85
2023-11-13T03:42:44.272Z,7542.07
2023-11-13T03:45:11.933Z,6037.52
2023-11-13T03:47:39.733Z,9294.66
2023-11-13T03:50:09.389Z,8941.16
2023-11-13T03:52:37.105Z,7562.83
2023-11-13T03:55:05.493Z,7688.23
2023-11-13T03:57:33.177Z,6558.78
2023-11-13T04:00:00.822Z,7097.08
2023-11-13T04:02:28.482Z,5944.09
2023-11-13T04:04:56.131Z,2158.19
2023-11-13T04:07:25.171Z,4664.79
2023-11-13T04:09:52.903Z,5892.90
2023-11-13T04:12:20.656Z,6237.98
2023-11-13T04:14:48.334Z,6177.23
2023-11-13T04:17:16.355Z,5579.74
2023-11-13T04:19:44.038Z,3780.92
2023-11-13T04:22:11.822Z,7078.65
2023-11-13T04:24:41.035Z,3655.25
2023-11-13T04:27:08.706Z,7541.09
2023-11-13T04:29:36.386Z,4188.97
2023-11-13T04:32:04.651Z,7154.39
2023-11-13T04:34:32.434Z,7600.47
2023-11-13T04:37:00.137Z,8610.88
2023-11-13T04:39:27.878Z,6691.73
2023-11-13T04:41:56.925Z,7442.05
2023-11-13T04:44:24.565Z,8056.15
2023-11-13T04:46:52.326Z,10559.52
2023-11-13T04:49:20.152Z,4586.09
2023-11-13T04:51:47.845Z,4737.31
2023-11-13T04:54:15.627Z,7476.05
2023-11-13T04:56:43.481Z,4995.62
2023-11-13T04:59:12.565Z,5970.06
2023-11-13T05:01:40.273Z,5594.88
2023-11-13T05:04:08.146Z,3676.57
2023-11-13T05:06:36.377Z,3457.90
2023-11-13T05:09:04.318Z,1868.80
2023-11-13T05:11:32.046Z,4185.11
2023-11-13T05:13:59.689Z,4130.82
2023-11-13T05:16:29.501Z,4298.53
2023-11-13T05:18:57.352Z,2273.03
2023-11-13T05:21:25.251Z,8179.02
2023-11-13T05:23:52.950Z,2756.72
2023-11-13T05:26:20.709Z,2985.26
2023-11-13T05:28:48.532Z,3149.20
2023-11-13T05:31:16.622Z,3354.68
2023-11-13T05:33:45.720Z,3379.80
2023-11-13T05:36:13.518Z,3345.45
2023-11-13T05:38:42.032Z,6184.10
2023-11-13T05:41:09.858Z,3585.95
2023-11-13T05:43:37.576Z,2712.81
2023-11-13T05:46:05.895Z,4668.60
2023-11-13T05:48:33.627Z,2580.46
2023-11-13T05:51:02.926Z,3602.76
2023-11-13T05:53:30.642Z,4171.93
2023-11-13T05:55:58.378Z,2362.02
2023-11-13T05:58:26.070Z,1049.58
2023-11-13T06:00:53.788Z,3348.43
2023-11-13T06:03:21.457Z,4648.21
2023-11-13T06:05:49.117Z,6699.10
2023-11-13T06:08:18.172Z,6174.02
2023-11-13T06:10:45.846Z,3350.80
2023-11-13T06:13:13.572Z,4981.87
2023-11-13T06:15:41.258Z,2970.76
2023-11-13T06:18:09.068Z,2510.45
2023-11-13T06:20:37.025Z,3293.27
2023-11-13T06:23:04.765Z,1280.18
2023-11-13T06:25:33.884Z,3581.13
2023-11-13T06:28:01.798Z,1194.01
2023-11-13T06:30:29.482Z,1578.80
2023-11-13T06:32:57.274Z,1394.48
2023-11-13T06:35:25.065Z,2839.21
2023-11-13T06:37:52.731Z,2507.84
2023-11-13T06:40:20.404Z,2211.23
2023-11-13T06:42:49.502Z,5494.65
2023-11-13T06:45:17.389Z,4184.92
2023-11-13T06:47:45.154Z,2580.41
2023-11-13T06:50:12.845Z,2522.43
2023-11-13T06:52:41.577Z,3986.50
2023-11-13T06:55:09.677Z,3214.50
2023-11-13T06:57:37.338Z,4372.20
2023-11-13T07:00:08.018Z,5016.44
2023-11-13T07:02:36.576Z,4294.52
2023-11-13T07:05:06.405Z,5582.66
2023-11-13T07:07:35.453Z,4407.51
2023-11-13T07:10:03.609Z,4698.75
2023-11-13T07:12:33.941Z,2781.53
2023-11-13T07:15:03.290Z,2471.22
2023-11-13T07:17:32.399Z,3623.89
2023-11-13T07:20:00.505Z,5098.17
2023-11-13T07:22:28.225Z,5436.64
2023-11-13T07:24:56.192Z,7372.09
2023-11-13T07:27:23.905Z,8789.31
2023-11-13T07:29:51.614Z,7146.77
2023-11-13T07:32:19.325Z,6312.75
2023-11-13T07:34:48.500Z,4762.30
2023-11-13T07:37:16.217Z,5052.05
2023-11-13T07:39:44.214Z,5106.46
2023-11-13T07:42:11.872Z,2717.17
2023-11-13T07:44:40.226Z,2999.79
2023-11-13T07:47:07.984Z,4202.16
2023-11-13T07:49:35.740Z,2199.41
2023-11-13T07:52:05.444Z,5544.29
2023-11-13T07:54:33.117Z,5861.67
2023-11-13T07:57:00.805Z,5193.85
2023-11-13T07:59:28.460Z,6523.91
2023-11-13T08:01:56.269Z,3491.86
2023-11-13T08:04:24.074Z,5342.60
2023-11-13T08:06:51.843Z,5482.66
2023-11-13T08:09:20.975Z,6762.01
2023-11-13T08:11:49.028Z,4928.00
2023-11-13T08:14:16.809Z,5605.03
2023-11-13T08:16:45.643Z,2310.70
2023-11-13T08:19:13.379Z,3892.02
2023-11-13T08:21:41.090Z,5346.77
2023-11-13T08:24:09.346Z,4083.44
2023-11-13T08:26:38.466Z,4612.07
2023-11-13T08:29:06.146Z,6301.77
2023-11-13T08:31:33.883Z,8268.87
2023-11-13T08:34:01.607Z,5597.54
2023-11-13T08:36:29.418Z,3614.41
2023-11-13T08:38:57.168Z,4097.93
2023-11-13T08:41:24.880Z,3876.34
2023-11-13T08:43:53.899Z,2549.60
2023-11-13T08:46:21.718Z,2171.50
2023-11-13T08:48:49.403Z,2600.23
2023-11-13T08:51:17.090Z,2876.12
2023-11-13T08:53:44.757Z,2579.64
2023-11-13T08:56:12.546Z,2515.64
2023-11-13T08:58:40.228Z,3334.26
2023-11-13T09:01:09.341Z,3416.19
2023-11-13T09:03:37.155Z,2964.86
2023-11-13T09:06:05.897Z,1751.94
2023-11-13T09:08:33.553Z,1770.56
2023-11-13T09:11:01.235Z,4614.74
2023-11-13T09:13:28.951Z,3043.89
2023-11-13T09:15:56.680Z,2774.70
2023-11-13T09:18:25.711Z,3172.05
2023-11-13T09:20:53.578Z,4301.12
2023-11-13T09:23:21.271Z,5835.02
2023-11-13T09:25:48.975Z,5892.76
2023-11-13T09:28:17.046Z,4349.64
2023-11-13T09:30:44.750Z,5277.75
2023-11-13T09:33:12.580Z,6736.01
2023-11-13T09:35:41.640Z,5899.22
2023-11-13T09:38:09.379Z,8868.69
2023-11-13T09:40:37.100Z,11254.36
2023-11-13T09:43:10.857Z,8615.94
2023-11-13T09:45:43.680Z,12686.56
2023-11-13T09:48:15.524Z,10182.18
2023-11-13T09:50:44.582Z,12688.40
2023-11-13T09:53:14.234Z,9423.54
2023-11-13T09:55:43.090Z,7091.71
2023-11-13T09:58:12.307Z,7800.66
2023-11-13T10:00:40.865Z,5271.86
2023-11-13T10:03:09.113Z,4742.72
2023-11-13T10:05:40.183Z,3855.42
2023-11-13T10:08:09.297Z,3934.77
2023-11-13T10:10:37.081Z,4936.79
2023-11-13T10:13:04.772Z,4287.10
2023-11-13T10:15:33.695Z,3061.06
2023-11-13T10:18:02.233Z,3044.09
2023-11-13T10:20:30.145Z,2758.25
2023-11-13T10:22:59.741Z,2229.91
2023-11-13T10:25:41.370Z,2270.66
2023-11-13T10:28:09.078Z,2221.17
2023-11-13T10:30:54.676Z,2989.08
2023-11-13T10:33:22.620Z,2952.07
2023-11-13T10:35:50.649Z,4949.68
2023-11-13T10:38:19.561Z,4574.80
2023-11-13T10:40:56.304Z,4000.07
2023-11-13T10:43:31.981Z,4325.71
2023-11-13T10:46:00.929Z,4337.11
2023-11-13T10:48:33.095Z,4460.40
2023-11-13T10:51:02.118Z,5054.75
2023-11-13T10:53:30.962Z,4292.27
2023-11-13T10:56:01.293Z,4068.77
2023-11-13T10:58:29.121Z,3428.17
2023-11-13T11:01:00.312Z,3438.46
2023-11-13T11:03:29.588Z,4235.57
2023-11-13T11:06:00.759Z,4876.63
2023-11-13T11:08:31.336Z,3205.31
2023-11-13T11:11:03.745Z,4233.26
2023-11-13T11:13:36.016Z,6862.34
2023-11-13T11:16:27.008Z,5513.71
2023-11-13T11:19:04.890Z,8594.96
2023-11-13T11:21:41.950Z,7151.36
2023-11-13T11:24:21.477Z,5944.11
2023-11-13T11:26:55.129Z,5903.88
2023-11-13T11:29:34.374Z,6460.74
2023-11-13T11:32:08.412Z,6330.27
2023-11-13T11:34:39.449Z,5291.14
2023-11-13T11:37:11.471Z,4339.53
2023-11-13T11:39:46.687Z,4449.77
2023-11-13T11:42:20.895Z,3879.62
2023-11-13T11:45:00.094Z,3350.75
2023-11-13T11:47:28.210Z,2918.40
2023-11-13T11:49:57.529Z,4442.85
2023-11-13T11:52:46.107Z,5877.95
2023-11-13T11:55:14.101Z,4623.13
2023-11-13T11:57:47.323Z,5506.03
2023-11-13T12:00:18.247Z,6287.62
2023-11-13T12:02:46.494Z,4669.66
2023-11-13T12:05:14.639Z,6209.18
2023-11-13T12:07:42.482Z,7754.57
2023-11-13T12:10:11.402Z,5933.64
2023-11-13T12:12:40.326Z,4255.62
2023-11-13T12:15:11.042Z,7126.70
2023-11-13T12:17:40.497Z,6778.62
2023-11-13T12:20:19.715Z,8314.58
2023-11-13T12:22:50.955Z,6991.62
2023-11-13T12:25:19.185Z,5831.95
2023-11-13T12:27:47.361Z,5854.56
2023-11-13T12:30:16.654Z,7489.16
2023-11-13T12:32:45.529Z,6520.50
2023-11-13T12:35:14.038Z,5646.32
2023-11-13T12:37:42.610Z,5302.22
2023-11-13T12:40:11.828Z,5660.05
2023-11-13T12:42:40.121Z,7367.54
2023-11-13T12:45:12.072Z,8255.24
2023-11-13T12:47:46.367Z,6519.42
2023-11-13T12:50:15.230Z,7092.96
2023-11-13T12:52:44.166Z,6474.99
2023-11-13T12:55:15.477Z,6146.03
2023-11-13T12:57:43.704Z,5277.02
2023-11-13T13:00:12.974Z,5548.71
2023-11-13T13:02:40.696Z,5623.70
2023-11-13T13:05:22.795Z,6030.11
2023-11-13T13:07:57.279Z,6427.60
2023-11-13T13:10:25.117Z,11546.93
2023-11-13T13:12:53.173Z,10742.58
2023-11-13T13:15:20.918Z,5183.27
2023-11-13T13:17:49.023Z,11727.97
2023-11-13T13:20:19.514Z,10126.51
2023-11-13T13:22:49.144Z,9944.44
2023-11-13T13:25:16.877Z,6681.71
2023-11-13T13:27:44.844Z,6187.49
2023-11-13T13:30:13.965Z,3083.08
2023-11-13T13:32:41.981Z,4987.50
2023-11-13T13:35:10.377Z,10027.10
2023-11-13T13:37:39.800Z,8775.66
2023-11-13T13:40:09.066Z,7991.53
2023-11-13T13:42:37.101Z,4597.31
2023-11-13T13:45:05.720Z,4748.46
2023-11-13T13:47:33.408Z,11499.48
2023-11-13T13:50:01.121Z,9356.31
2023-11-13T13:52:28.811Z,12400.18
2023-11-13T13:54:59.049Z,9138.80
2023-11-13T13:57:26.712Z,5009.25
2023-11-13T13:59:54.344Z,3646.94
2023-11-13T14:02:21.991Z,2584.80
2023-11-13T14:04:50.234Z,3922.91
2023-11-13T14:07:17.907Z,4313.04
2023-11-13T14:09:45.599Z,5701.45
2023-11-13T14:12:21.150Z,6998.17
2023-11-13T14:14:49.818Z,6323.00
2023-11-13T14:17:17.571Z,8078.33
2023-11-13T14:19:45.313Z,10171.66
2023-11-13T14:22:13.089Z,10637.63
2023-11-13T14:24:40.833Z,8411.50
2023-11-13T14:27:08.570Z,9717.34
2023-11-13T14:29:37.592Z,12634.22
2023-11-13T14:32:06.168Z,11778.82
2023-11-13T14:34:33.844Z,10236.06
2023-11-13T14:37:02.615Z,5696.08
2023-11-13T14:39:30.628Z,5174.29
2023-11-13T14:41:58.323Z,9964.78
2023-11-13T14:44:26.008Z,5652.39
2023-11-13T14:46:55.075Z,6057.30
2023-11-13T14:49:22.777Z,6873.36
2023-11-13T14:51:50.499Z,6167.79
2023-11-13T14:54:18.170Z,4020.94
2023-11-13T14:56:45.821Z,8198.66
2023-11-13T14:59:13.478Z,6297.40
2023-11-13T15:01:41.247Z,4602.15
2023-11-13T15:04:10.361Z,6187.17
2023-11-13T15:06:38.099Z,5137.14
2023-11-13T15:09:05.881Z,3658.79
2023-11-13T15:11:33.584Z,4790.66
2023-11-13T15:14:01.231Z,4225.85
2023-11-13T15:16:28.955Z,6040.41
2023-11-13T15:18:56.724Z,3390.66
2023-11-13T15:21:25.773Z,4044.37
2023-11-13T15:23:53.567Z,3962.14
2023-11-13T15:26:21.276Z,6065.16
2023-11-13T15:28:49.041Z,3306.67
2023-11-13T15:31:16.903Z,10029.52
2023-11-13T15:33:44.713Z,8075.16
2023-11-13T15:36:12.443Z,11590.64
2023-11-13T15:38:41.712Z,7624.00
2023-11-13T15:41:09.401Z,11923.43
2023-11-13T15:43:37.126Z,10023.12
2023-11-13T15:46:05.649Z,10990.59
2023-11-13T15:48:33.336Z,6902.43
2023-11-13T15:51:01.023Z,6452.40
2023-11-13T15:53:28.868Z,6501.61
2023-11-13T15:55:57.869Z,4485.85
2023-11-13T15:58:25.576Z,5795.27
2023-11-13T16:00:53.331Z,4727.10
2023-11-13T16:03:22.708Z,7982.35
2023-11-13T16:05:53.893Z,7138.38
2023-11-13T16:08:21.560Z,7931.52
2023-11-13T16:10:49.275Z,10994.28
2023-11-13T16:13:18.335Z,8943.02
2023-11-13T16:15:46.056Z,9704.74
2023-11-13T16:18:13.976Z,11675.09
2023-11-13T16:20:41.769Z,7857.64
2023-11-13T16:23:09.628Z,8354.50
2023-11-13T16:25:37.332Z,5871.16
2023-11-13T16:28:05.400Z,2961.22
2023-11-13T16:30:34.500Z,6604.02
2023-11-13T16:33:02.418Z,5650.07
2023-11-13T16:35:30.271Z,3136.70
2023-11-13T16:37:57.916Z,4792.04
2023-11-13T16:40:25.612Z,3719.50
2023-11-13T16:42:53.277Z,5399.70
2023-11-13T16:45:20.942Z,4791.60
2023-11-13T16:47:49.950Z,7448.13
2023-11-13T16:50:17.718Z,6914.41
2023-11-13T16:52:45.466Z,9180.19
2023-11-13T16:55:13.291Z,9088.13
2023-11-13T16:57:41.021Z,11313.61
2023-11-13T17:00:09.598Z,10798.86
2023-11-13T17:02:37.401Z,9080.57
2023-11-13T17:05:07.074Z,8270.16
2023-11-13T17:07:34.750Z,6662.89
2023-11-13T17:10:02.543Z,7990.11
2023-11-13T17:12:30.204Z,7186.65
2023-11-13T17:14:57.840Z,8068.40
2023-11-13T17:17:25.558Z,8578.24
2023-11-13T17:19:53.341Z,9430.93
2023-11-13T17:22:22.486Z,7091.88
2023-11-13T17:24:50.236Z,5896.74
2023-11-13T17:27:17.929Z,8131.62
2023-11-13T17:29:45.600Z,8457.32
2023-11-13T17:32:13.358Z,7208.61
2023-11-13T17:34:41.128Z,10026.42
2023-11-13T17:37:09.059Z,8841.56
2023-11-13T17:39:38.076Z,10290.87
2023-11-13T17:42:05.966Z,10724.63
2023-11-13T17:44:33.713Z,7272.19
2023-11-13T17:47:01.485Z,7572.67
2023-11-13T17:49:29.218Z,6590.81
2023-11-13T17:51:56.902Z,7794.86
2023-11-13T17:54:24.699Z,7256.98
2023-11-13T17:56:53.715Z,6765.86
2023-11-13T17:59:21.415Z,7342.20
2023-11-13T18:01:50.572Z,7955.06
2023-11-13T18:04:18.337Z,6674.05
2023-11-13T18:06:46.083Z,7472.09
2023-11-13T18:09:13.761Z,8790.72
2023-11-13T18:11:42.875Z,8896.74
2023-11-13T18:14:11.928Z,8871.54
2023-11-13T18:16:39.680Z,6445.33
2023-11-13T18:19:07.389Z,6263.40
2023-11-13T18:21:35.100Z,5157.79
2023-11-13T18:24:02.813Z,9943.44
2023-11-13T18:26:30.467Z,8709.77
2023-11-13T18:28:58.173Z,6355.71
2023-11-13T18:31:28.428Z,4380.41
2023-11-13T18:33:56.280Z,8428.88
2023-11-13T18:36:24.181Z,8253.40
2023-11-13T18:38:53.139Z,5846.76
2023-11-13T18:41:20.795Z,6847.51
2023-11-13T18:43:48.730Z,12070.51
2023-11-13T18:46:16.518Z,5356.18
2023-11-13T18:48:45.551Z,4486.29
2023-11-13T18:51:13.257Z,6447.68
2023-11-13T18:53:40.951Z,5194.81
2023-11-13T18:56:09.215Z,4657.93
2023-11-13T18:58:36.907Z,8096.84
2023-11-13T19:01:04.980Z,8116.38
2023-11-13T19:03:32.781Z,8011.58
2023-11-13T19:06:01.886Z,7103.67
2023-11-13T19:08:29.598Z,7438.71
2023-11-13T19:10:57.331Z,7600.23
2023-11-13T19:13:25.523Z,6551.83
2023-11-13T19:15:53.241Z,7827.63
2023-11-13T19:18:20.913Z,5639.12
2023-11-13T19:20:48.637Z,6872.80
2023-11-13T19:23:17.636Z,9238.98
2023-11-13T19:25:45.397Z,6817.23
2023-11-13T19:28:13.105Z,6401.01
2023-11-13T19:30:41.193Z,6349.20
2023-11-13T19:33:08.921Z,8446.81
2023-11-13T19:35:36.883Z,8524.90
2023-11-13T19:38:04.577Z,9222.81
2023-11-13T19:40:33.662Z,10778.06
2023-11-13T19:43:01.888Z,12687.55
2023-11-13T19:45:30.461Z,12502.35
2023-11-13T19:47:58.263Z,10035.43
2023-11-13T19:50:26.001Z,8325.20
2023-11-13T19:52:53.844Z,7697.35
2023-11-13T19:55:21.727Z,8002.79
2023-11-13T19:57:50.875Z,8061.85
2023-11-13T20:00:19.092Z,7121.19
2023-11-13T20:02:47.294Z,6729.35
2023-11-13T20:05:15.469Z,6215.11
2023-11-13T20:07:43.209Z,4376.46
2023-11-13T20:10:11.098Z,5359.61
2023-11-13T20:12:38.843Z,9023.03
2023-11-13T20:15:09.091Z,9946.01
2023-11-13T20:17:37.230Z,10865.35
2023-11-13T20:20:05.818Z,3926.04
2023-11-13T20:22:33.473Z,5180.51
2023-11-13T20:25:01.309Z,3238.39
2023-11-13T20:27:29.144Z,4305.73
2023-11-13T20:30:03.808Z,5866.66
2023-11-13T20:32:34.890Z,5092.78
2023-11-13T20:35:02.856Z,6984.15
2023-11-13T20:37:30.757Z,8251.85
2023-11-13T20:39:58.491Z,5605.65
2023-11-13T20:42:26.260Z,6375.47
2023-11-13T20:44:53.977Z,5516.65
2023-11-13T20:47:22.021Z,7806.52
2023-11-13T20:49:51.269Z,6695.24
2023-11-13T20:52:19.212Z,7820.68
2023-11-13T20:54:46.951Z,7824.64
2023-11-13T20:57:14.702Z,6707.02
2023-11-13T20:59:42.625Z,5162.34
2023-11-13T21:02:10.429Z,3418.25
2023-11-13T21:04:39.399Z,5502.43
2023-11-13T21:07:08.523Z,7093.88
2023-11-13T21:09:36.262Z,6795.11
2023-11-13T21:12:04.667Z,9138.75
2023-11-13T21:14:32.391Z,9355.35
2023-11-13T21:17:01.285Z,8779.66
2023-11-13T21:19:28.990Z,8080.54
2023-11-13T21:21:56.688Z,7537.85
2023-11-13T21:24:25.886Z,7360.55
2023-11-13T21:26:53.688Z,6549.56
2023-11-13T21:29:23.879Z,8873.55
2023-11-13T21:31:51.580Z,9641.74
2023-11-13T21:34:19.373Z,11124.32
2023-11-13T21:36:47.066Z,9848.19
2023-11-13T21:39:14.831Z,9839.47
2023-11-13T21:41:43.984Z,10102.38
2023-11-13T21:44:11.824Z,10661.44
2023-11-13T21:46:39.575Z,10439.72
2023-11-13T21:49:07.495Z,8489.01
2023-11-13T21:51:35.159Z,8191.88
2023-11-13T21:54:02.958Z,8374.68
2023-11-13T21:56:30.618Z,8946.14
2023-11-13T21:58:59.736Z,9322.76
2023-11-13T22:01:27.510Z,7474.99
2023-11-13T22:03:55.255Z,6090.65
2023-11-13T22:06:22.955Z,7056.66
2023-11-13T22:08:50.705Z,6636.33
2023-11-13T22:11:18.507Z,4616.05
2023-11-13T22:13:46.243Z,8119.70
2023-11-13T22:16:15.288Z,8545.67
2023-11-13T22:18:43.012Z,8745.34
2023-11-13T22:21:10.873Z,10066.46
2023-11-13T22:23:38.561Z,9613.23
2023-11-13T22:26:06.311Z,7644.39
2023-11-13T22:28:34.135Z,9210.96
2023-11-13T22:31:02.040Z,11095.34
2023-11-13T22:33:31.097Z,9433.99
2023-11-13T22:35:58.773Z,8660.12
2023-11-13T22:38:26.495Z,9635.19
2023-11-13T22:40:54.512Z,7668.66
2023-11-13T22:43:22.404Z,7188.42
2023-11-13T22:45:52.234Z,9980.17
2023-11-13T22:48:19.901Z,10467.62
2023-11-13T22:50:49.124Z,9712.88
2023-11-13T22:53:16.963Z,9838.57
2023-11-13T22:55:44.731Z,8533.97
2023-11-13T22:58:12.464Z,10873.94
2023-11-13T23:00:40.141Z,10018.09
2023-11-13T23:03:07.880Z,8580.33
2023-11-13T23:05:35.563Z,10201.18
2023-11-13T23:08:05.721Z,5146.49
2023-11-13T23:10:33.523Z,5022.83
2023-11-13T23:13:01.262Z,5664.92
2023-11-13T23:15:32.157Z,6803.41
2023-11-13T23:17:59.856Z,5478.14
2023-11-13T23:20:27.582Z,5553.69
2023-11-13T23:22:55.293Z,5875.46
2023-11-13T23:25:24.757Z,5368.82
2023-11-13T23:27:52.417Z,5932.47
2023-11-13T23:30:20.156Z,7911.27
2023-11-13T23:32:47.846Z,6845.22
2023-11-13T23:35:15.580Z,10175.02
2023-11-13T23:37:43.344Z,10275.83
2023-11-13T23:40:12.407Z,11434.30
2023-11-13T23:42:41.468Z,13391.25
2023-11-13T23:45:10.005Z,13499.87
2023-11-13T23:47:38.280Z,10839.64
2023-11-13T23:50:07.005Z,7629.97
2023-11-13T23:52:35.214Z,10360.44
2023-11-13T23:55:03.068Z,7866.48
2023-11-13T23:57:30.855Z,6609.75
2023-11-13T23:59:59.910Z,8699.51
